Time;durP1;ratioP1;P1;durP2;ratioP2;P2;SDS_P1;SDS_P2;PMS_P1;PMS_P2;Temp;Humidity;BMP_temperature;BMP_pressure;BME280_temperature;BME280_humidity;BME280_pressure;Samples;Min_cycle;Max_cycle;Signal;HPM_P1;HPM_P2
2021/08/02 00:00:52;;;;;;;14.15;10.82;;;;;;;14.83;78.82;99495.15;2125184;82;28786;-65
2021/08/02 00:04:11;;;;;;;16.80;11.15;;;;;;;14.83;78.84;99494.64;2158972;82;27903;-64
2021/08/02 00:07:18;;;;;;;11.28;10.08;;;;;;;14.83;78.82;99499.19;2145549;82;33946;-65
2021/08/02 00:10:20;;;;;;;16.50;10.85;;;;;;;14.81;78.80;99496.59;2132925;82;30604;-65
2021/08/02 00:13:29;;;;;;;13.28;10.68;;;;;;;14.80;78.81;99498.08;2141870;82;27703;-65
2021/08/02 00:16:34;;;;;;;16.40;9.73;;;;;;;14.78;78.76;99500.92;2159320;82;28835;-65
2021/08/02 00:19:36;;;;;;;11.50;9.67;;;;;;;14.77;78.81;99505.06;2126380;82;31073;-65
2021/08/02 00:22:37;;;;;;;14.98;9.05;;;;;;;14.73;78.68;99503.11;2120690;83;33783;-65
2021/08/02 00:25:39;;;;;;;10.90;8.85;;;;;;;14.70;78.71;99497.48;2121784;82;30650;-65
2021/08/02 00:28:41;;;;;;;12.73;9.58;;;;;;;14.67;78.72;99504.44;2133739;82;27764;-65
2021/08/02 00:31:44;;;;;;;18.52;9.15;;;;;;;14.63;78.61;99501.61;2120721;83;29452;-65
2021/08/02 00:34:46;;;;;;;11.22;8.83;;;;;;;14.59;78.67;99494.73;2156920;82;31026;-65
2021/08/02 00:38:09;;;;;;;14.30;8.73;;;;;;;14.56;78.70;99497.20;2154258;82;32989;-64
2021/08/02 00:41:22;;;;;;;10.95;7.55;;;;;;;14.53;78.67;99493.39;2152451;82;29635;-66
2021/08/02 00:44:52;;;;;;;19.30;8.50;;;;;;;14.50;78.72;99501.72;2157479;82;27645;-65
2021/08/02 00:48:10;;;;;;;16.30;7.42;;;;;;;14.48;78.74;99501.48;2120947;83;28660;-65
2021/08/02 00:51:13;;;;;;;10.18;7.10;;;;;;;14.48;78.89;99498.78;2120413;83;31703;-65
2021/08/02 00:54:16;;;;;;;12.68;7.50;;;;;;;14.48;78.98;99493.39;2154774;82;33678;-66
2021/08/02 00:57:19;;;;;;;13.00;7.33;;;;;;;14.48;79.03;99494.73;2122983;82;29696;-65
2021/08/02 01:00:21;;;;;;;18.35;7.45;;;;;;;14.47;79.02;99501.98;2120381;83;27777;-65
2021/08/02 01:03:23;;;;;;;15.38;7.42;;;;;;;14.47;79.04;99500.63;2111431;83;28164;-65
2021/08/02 01:06:29;;;;;;;9.93;7.12;;;;;;;14.48;79.07;99507.71;2119053;83;31124;-65
2021/08/02 01:09:32;;;;;;;10.40;7.35;;;;;;;14.48;79.08;99506.36;2120830;83;33149;-64
2021/08/02 01:12:35;;;;;;;9.78;7.15;;;;;;;14.47;78.93;99503.33;2113704;83;29816;-65
2021/08/02 01:15:38;;;;;;;12.37;7.35;;;;;;;14.48;79.01;99501.48;2084785;83;27654;-65
2021/08/02 01:18:40;;;;;;;12.78;6.67;;;;;;;14.49;79.00;99498.64;2102837;83;28665;-66
2021/08/02 01:21:44;;;;;;;15.00;7.37;;;;;;;14.48;78.95;99501.48;2104271;83;31843;-64
2021/08/02 01:24:47;;;;;;;15.80;7.42;;;;;;;14.48;78.92;99509.56;2118376;83;32988;-65
2021/08/02 01:27:54;;;;;;;17.62;7.37;;;;;;;14.47;78.94;99504.67;2091199;83;29136;-65
2021/08/02 01:30:59;;;;;;;17.42;7.87;;;;;;;14.47;78.99;99505.15;2153590;82;27676;-65
2021/08/02 01:34:01;;;;;;;11.45;6.92;;;;;;;14.47;79.02;99506.50;2156974;82;28804;-65
2021/08/02 01:37:04;;;;;;;11.83;7.00;;;;;;;14.46;79.05;99504.30;2159307;82;31206;-65
2021/08/02 01:40:07;;;;;;;15.95;6.67;;;;;;;14.47;78.96;99506.50;2142810;82;33791;-65
2021/08/02 01:43:09;;;;;;;13.85;7.50;;;;;;;14.46;79.05;99512.39;2112230;84;29849;-65
2021/08/02 01:46:28;;;;;;;9.68;7.47;;;;;;;14.46;79.07;99515.56;2112519;83;27812;-65
2021/08/02 01:49:39;;;;;;;11.75;7.15;;;;;;;14.47;79.13;99514.58;2112196;84;29514;-65
2021/08/02 01:52:50;;;;;;;9.90;7.30;;;;;;;14.46;79.09;99517.78;2087185;85;31489;-66
2021/08/02 01:56:17;;;;;;;9.40;7.30;;;;;;;14.47;79.17;99516.80;2123236;82;32975;-66
2021/08/02 01:59:23;;;;;;;11.45;7.03;;;;;;;14.48;79.13;99517.14;2152616;82;29703;-64
2021/08/02 02:02:26;;;;;;;13.22;7.10;;;;;;;14.50;79.19;99517.05;2159104;82;27720;-65
2021/08/02 02:05:37;;;;;;;10.00;7.15;;;;;;;14.51;79.15;99518.77;2130200;82;29717;-65
2021/08/02 02:08:43;;;;;;;10.60;7.42;;;;;;;14.52;79.23;99515.93;2138989;82;31030;-66
2021/08/02 02:11:48;;;;;;;13.05;6.62;;;;;;;14.52;79.21;99515.93;2132256;82;32989;-65
2021/08/02 02:14:52;;;;;;;8.65;7.62;;;;;;;14.54;79.19;99515.83;2159405;82;29625;-66
2021/08/02 02:17:54;;;;;;;10.43;7.67;;;;;;;14.55;79.22;99517.05;2150269;82;27602;-65
2021/08/02 02:20:59;;;;;;;18.07;7.65;;;;;;;14.55;79.17;99520.24;2159410;82;29549;-65
2021/08/02 02:24:02;;;;;;;12.35;7.00;;;;;;;14.56;79.22;99520.61;2159597;82;31749;-66
2021/08/02 02:27:06;;;;;;;10.80;7.50;;;;;;;14.59;79.24;99521.69;2159244;82;33825;-65
2021/08/02 02:30:09;;;;;;;11.55;7.25;;;;;;;14.58;79.18;99519.50;2145777;82;30441;-65
2021/08/02 02:33:14;;;;;;;13.72;6.78;;;;;;;14.58;79.12;99524.02;2158533;82;27736;-65
2021/08/02 02:36:15;;;;;;;;;;;;;;;14.58;79.12;99534.80;2123375;82;29431;-64
2021/08/02 02:39:18;;;;;;;17.98;6.67;;;;;;;14.57;79.22;99529.03;2122745;82;31007;-64
2021/08/02 02:42:20;;;;;;;11.60;7.87;;;;;;;14.57;79.25;99533.95;2159325;82;33752;-64
2021/08/02 02:45:23;;;;;;;12.68;7.40;;;;;;;14.58;79.25;99538.84;2121764;82;29634;-64
2021/08/02 02:48:26;;;;;;;10.75;7.15;;;;;;;14.60;79.28;99540.93;2102659;82;27620;-64
2021/08/02 02:51:29;;;;;;;10.30;7.10;;;;;;;14.62;79.26;99544.37;2131895;82;28754;-61
2021/08/02 02:54:32;;;;;;;15.03;7.87;;;;;;;14.64;79.21;99545.61;2138409;82;31094;-65
2021/08/02 02:57:37;;;;;;;20.20;8.25;;;;;;;14.65;79.14;99548.64;2151568;82;32725;-65
2021/08/02 03:00:39;;;;;;;8.27;6.20;;;;;;;14.65;79.23;99546.83;2153331;82;29653;-65
2021/08/02 03:03:45;;;;;;;10.65;8.20;;;;;;;14.69;79.27;99547.47;2159060;82;27703;-65
2021/08/02 03:06:48;;;;;;;18.05;7.78;;;;;;;14.69;79.13;99544.77;2141252;82;28685;-65
2021/08/02 03:09:50;;;;;;;9.70;7.80;;;;;;;14.69;79.12;99552.86;2122112;82;31857;-65
2021/08/02 03:12:53;;;;;;;19.77;8.38;;;;;;;14.69;79.13;99559.59;2135223;82;33062;-65
2021/08/02 03:15:55;;;;;;;15.03;7.75;;;;;;;14.70;79.14;99557.27;2136345;82;30690;-64
2021/08/02 03:18:57;;;;;;;13.72;8.15;;;;;;;14.72;79.17;99560.70;2121280;82;27677;-65
2021/08/02 03:22:03;;;;;;;15.70;7.78;;;;;;;14.73;79.16;99563.78;2120873;83;29659;-65
2021/08/02 03:25:19;;;;;;;13.15;8.40;;;;;;;14.72;79.13;99569.67;2122408;82;31022;-65
2021/08/02 03:28:44;;;;;;;16.57;8.53;;;;;;;14.74;79.16;99573.59;2154153;82;33025;-65
2021/08/02 03:31:59;;;;;;;15.65;7.97;;;;;;;14.73;79.15;99571.36;2131486;82;30452;-64
2021/08/02 03:35:04;;;;;;;11.22;7.87;;;;;;;14.72;79.08;99583.16;2102084;83;33813;-64
2021/08/02 03:38:07;;;;;;;12.78;9.45;;;;;;;14.73;79.03;99588.05;2123346;82;28497;-64
2021/08/02 03:41:10;;;;;;;13.85;8.40;;;;;;;14.72;78.93;99589.02;2150117;82;31022;-65
2021/08/02 03:44:13;;;;;;;19.20;8.78;;;;;;;14.71;79.09;99593.56;2145863;82;33583;-65
2021/08/02 03:47:18;;;;;;;13.13;8.95;;;;;;;14.73;79.06;99599.67;2136649;82;29670;-65
2021/08/02 03:50:20;;;;;;;13.62;8.38;;;;;;;14.73;79.05;99604.22;2146068;82;27713;-65
2021/08/02 03:53:21;;;;;;;15.35;7.85;;;;;;;14.75;79.15;99611.70;2121094;82;28672;-65
2021/08/02 03:56:23;;;;;;;12.95;8.15;;;;;;;14.77;79.06;99615.61;2122357;82;31055;-64
2021/08/02 03:59:25;;;;;;;14.60;8.88;;;;;;;14.77;78.96;99613.80;2121620;82;33159;-65
2021/08/02 04:02:27;;;;;;;12.13;7.85;;;;;;;14.81;79.07;99615.75;2145896;82;30428;-65
2021/08/02 04:05:28;;;;;;;8.50;7.60;;;;;;;14.83;79.13;99617.34;2121764;83;27642;-65
2021/08/02 04:08:30;;;;;;;14.33;8.48;;;;;;;14.86;79.02;99625.19;2105091;83;28665;-65
2021/08/02 04:11:32;;;;;;;11.45;8.03;;;;;;;14.92;79.09;99627.05;2114103;83;31033;-65
2021/08/02 04:14:34;;;;;;;10.30;8.03;;;;;;;14.95;79.05;99625.46;2121393;83;33824;-65
2021/08/02 04:17:36;;;;;;;10.85;8.10;;;;;;;15.00;79.14;99628.63;2110951;83;29867;-64
2021/08/02 04:20:38;;;;;;;12.28;8.38;;;;;;;15.06;79.17;99634.06;2097646;83;28331;-65
2021/08/02 04:23:40;;;;;;;14.85;8.48;;;;;;;15.10;79.12;99636.38;2094066;83;28671;-65
2021/08/02 04:26:42;;;;;;;13.85;8.85;;;;;;;15.15;79.11;99631.45;2113889;83;31102;-65
2021/08/02 04:29:44;;;;;;;15.18;9.73;;;;;;;15.23;79.10;99638.94;2110501;83;33013;-66
2021/08/02 04:32:46;;;;;;;14.47;8.60;;;;;;;15.30;78.98;99645.58;2121509;83;29644;-65
2021/08/02 04:35:48;;;;;;;15.50;7.50;;;;;;;15.40;79.11;99652.92;2087893;83;27680;-65
2021/08/02 04:38:50;;;;;;;12.35;7.45;;;;;;;15.53;79.04;99656.38;2107011;83;28645;-64
2021/08/02 04:41:51;;;;;;;13.03;6.83;;;;;;;15.69;79.05;99660.52;2121637;83;30993;-65
2021/08/02 04:44:53;;;;;;;8.25;7.33;;;;;;;15.78;78.86;99664.69;2099180;83;33736;-65
2021/08/02 04:47:54;;;;;;;10.93;6.83;;;;;;;15.89;78.76;99671.06;2083831;85;30465;-65
2021/08/02 04:50:56;;;;;;;12.18;7.65;;;;;;;15.98;78.78;99671.64;2086646;83;27721;-65
2021/08/02 04:53:58;;;;;;;10.18;7.30;;;;;;;16.06;78.66;99679.98;2083826;85;28645;-64
2021/08/02 04:57:00;;;;;;;12.45;7.75;;;;;;;16.14;78.63;99686.11;2118963;83;31047;-65
2021/08/02 05:00:03;;;;;;;9.90;6.70;;;;;;;16.23;78.59;99683.98;2157181;82;33741;-65
2021/08/02 05:03:05;;;;;;;7.95;6.25;;;;;;;16.26;78.32;99682.89;2159575;81;29652;-65
2021/08/02 05:06:07;;;;;;;7.80;6.65;;;;;;;16.28;78.02;99700.31;2172660;81;27715;-65
2021/08/02 05:09:09;;;;;;;8.43;6.85;;;;;;;16.31;78.01;99696.85;2154173;81;28818;-65
2021/08/02 05:12:11;;;;;;;9.03;6.83;;;;;;;16.37;78.01;99700.41;2133180;83;31234;-65
2021/08/02 05:15:13;;;;;;;8.08;6.60;;;;;;;16.47;78.04;99699.62;2143136;81;33804;-65
2021/08/02 05:18:15;;;;;;;11.20;5.97;;;;;;;16.55;77.79;99699.84;2127998;83;30424;-65
2021/08/02 05:21:17;;;;;;;10.70;6.25;;;;;;;16.62;77.75;99701.53;2128180;83;27712;-65
2021/08/02 05:24:19;;;;;;;8.40;6.87;;;;;;;16.70;77.54;99699.89;2128021;83;28816;-65
2021/08/02 05:27:21;;;;;;;9.80;5.95;;;;;;;16.79;77.44;99705.52;2127758;83;31229;-65
2021/08/02 05:30:23;;;;;;;10.03;6.20;;;;;;;16.76;77.28;99684.14;2128026;83;32810;-65
2021/08/02 05:33:25;;;;;;;10.95;5.92;;;;;;;17.00;77.42;99702.84;2127962;83;29638;-66
2021/08/02 05:36:27;;;;;;;8.83;6.12;;;;;;;17.11;77.09;99706.82;2128076;83;27732;-66
2021/08/02 05:39:29;;;;;;;6.97;5.55;;;;;;;17.19;76.74;99704.80;2127993;83;28688;-66
2021/08/02 05:42:31;;;;;;;9.73;5.90;;;;;;;17.21;76.61;99706.88;2128001;83;31831;-66
2021/08/02 05:45:33;;;;;;;10.35;6.28;;;;;;;17.21;76.61;99706.88;2156072;82;33188;-66
2021/08/02 05:48:35;;;;;;;7.97;6.70;;;;;;;17.21;76.22;99706.03;2124890;82;30457;-66
2021/08/02 05:51:37;;;;;;;8.53;6.05;;;;;;;17.27;76.41;99713.60;2108716;83;27777;-67
2021/08/02 05:54:39;;;;;;;7.22;5.70;;;;;;;17.35;76.39;99722.41;2121886;82;28868;-68
2021/08/02 05:57:41;;;;;;;6.62;5.90;;;;;;;17.50;76.42;99722.92;2120817;83;31092;-68
2021/08/02 06:00:43;;;;;;;7.03;6.05;;;;;;;17.66;76.12;99721.92;2140780;82;33765;-68
2021/08/02 06:03:45;;;;;;;6.17;5.58;;;;;;;17.83;75.84;99722.27;2146181;82;29650;-68
2021/08/02 06:06:48;;;;;;;8.15;5.53;;;;;;;17.98;75.75;99724.11;2086282;83;27756;-68
2021/08/02 06:09:51;;;;;;;7.30;5.35;;;;;;;18.18;75.60;99729.94;2111943;83;29606;-69
2021/08/02 06:12:53;;;;;;;7.08;5.67;;;;;;;18.34;75.47;99732.13;2120826;83;31850;-68
2021/08/02 06:15:55;;;;;;;7.47;5.75;;;;;;;18.55;75.30;99731.12;2121064;83;33047;-69
2021/08/02 06:18:58;;;;;;;8.18;5.90;;;;;;;18.76;75.11;99732.36;2111802;84;44251;-69
2021/08/02 06:22:00;;;;;;;6.35;5.67;;;;;;;19.05;74.96;99740.13;2112273;84;27619;-68
2021/08/02 06:25:03;;;;;;;5.62;5.00;;;;;;;19.41;74.26;99735.78;2121165;82;29703;-68
2021/08/02 06:28:05;;;;;;;5.83;5.33;;;;;;;19.79;74.07;99737.14;2157535;82;31076;-68
2021/08/02 06:31:07;;;;;;;12.07;4.92;;;;;;;20.10;72.92;99734.14;2156803;82;33757;-67
2021/08/02 06:34:09;;;;;;;7.92;5.20;;;;;;;20.20;72.57;99742.25;2148178;82;29628;-68
2021/08/02 06:37:12;;;;;;;6.75;4.67;;;;;;;20.21;71.83;99746.68;2122853;82;27691;-68
2021/08/02 06:40:16;;;;;;;6.92;5.10;;;;;;;20.19;71.95;99742.73;2148726;82;29826;-70
2021/08/02 06:43:18;;;;;;;5.80;4.90;;;;;;;20.20;71.61;99747.69;2137609;82;31046;-65
2021/08/02 06:46:19;;;;;;;8.18;5.20;;;;;;;20.06;71.09;99749.05;2120510;84;33969;-66
2021/08/02 06:49:21;;;;;;;5.28;4.72;;;;;;;19.99;71.05;99752.88;2139214;82;30466;-65
2021/08/02 06:52:23;;;;;;;8.10;5.03;;;;;;;20.03;70.87;99753.42;2144645;82;27758;-67
2021/08/02 06:55:25;;;;;;;5.75;5.15;;;;;;;20.09;71.07;99751.98;2120758;84;28625;-66
2021/08/02 06:58:27;;;;;;;6.62;5.28;;;;;;;20.19;70.61;99747.33;2121648;82;31188;-68
2021/08/02 07:01:29;;;;;;;6.40;5.40;;;;;;;20.48;70.52;99747.15;2121325;83;33015;-66
2021/08/02 07:04:31;;;;;;;6.42;5.12;;;;;;;20.97;70.68;99758.17;2142879;81;29627;-66
2021/08/02 07:07:33;;;;;;;6.28;4.45;;;;;;;21.82;70.80;99760.81;2172925;81;27666;-66
2021/08/02 07:10:39;;;;;;;5.87;4.40;;;;;;;22.49;69.19;99750.52;2143935;83;29463;-66
2021/08/02 07:13:41;;;;;;;4.70;4.22;;;;;;;23.02;67.83;99749.69;2144087;83;31027;-67
2021/08/02 07:16:44;;;;;;;6.25;4.35;;;;;;;23.65;66.87;99751.33;2143861;83;33165;-66
2021/08/02 07:19:46;;;;;;;3.65;3.30;;;;;;;23.86;65.85;99749.91;2144216;83;29623;-68
2021/08/02 07:22:51;;;;;;;7.72;5.20;;;;;;;24.00;65.35;99759.80;2136558;83;27710;-67
2021/08/02 07:25:54;;;;;;;5.03;4.53;;;;;;;23.91;63.70;99767.16;2169898;81;28647;-68
2021/08/02 07:28:58;;;;;;;5.70;3.70;;;;;;;23.70;63.92;99769.11;2133413;83;31706;-66
2021/08/02 07:32:00;;;;;;;5.03;3.77;;;;;;;23.70;63.91;99768.58;2149741;82;33802;-67
2021/08/02 07:35:03;;;;;;;5.75;4.00;;;;;;;23.63;63.85;99770.32;2154857;81;29643;-66
2021/08/02 07:38:06;;;;;;;6.08;4.47;;;;;;;23.54;63.17;99774.08;2172651;81;27704;-66
2021/08/02 07:41:13;;;;;;;8.43;5.08;;;;;;;23.43;63.11;99773.43;2156372;81;28759;-66
2021/08/02 07:44:18;;;;;;;6.87;4.30;;;;;;;23.39;62.13;99773.95;2130910;81;31920;-66
2021/08/02 07:47:21;;;;;;;3.85;3.55;;;;;;;23.33;62.99;99776.34;2171620;81;33044;-66
2021/08/02 07:50:25;;;;;;;3.90;3.45;;;;;;;23.80;62.89;99778.83;2169914;81;30606;-66
2021/08/02 07:53:27;;;;;;;;;;;;;;;24.48;62.42;99783.02;2136550;83;27680;-65
2021/08/02 07:56:32;;;;;;;4.58;3.52;;;;;;;24.81;60.41;99788.31;2133852;83;28632;-66
2021/08/02 07:59:35;;;;;;;3.30;3.10;;;;;;;24.73;59.53;99787.33;2149622;82;30942;-65
2021/08/02 08:02:38;;;;;;;3.27;2.98;;;;;;;24.57;59.53;99790.14;2134273;81;33789;-66
2021/08/02 08:05:44;;;;;;;5.62;3.27;;;;;;;24.45;59.40;99795.16;2171419;81;30519;-66
2021/08/02 08:08:46;;;;;;;6.80;2.72;;;;;;;24.55;59.71;99801.28;2172983;81;27822;-66
2021/08/02 08:11:49;;;;;;;2.80;2.60;;;;;;;24.80;59.29;99797.03;2172984;81;29486;-65
2021/08/02 08:14:52;;;;;;;2.87;2.30;;;;;;;24.96;58.04;99802.06;2167002;81;31008;-66
2021/08/02 08:17:55;;;;;;;3.40;2.20;;;;;;;25.23;57.96;99800.65;2133756;83;33058;-66
2021/08/02 08:21:00;;;;;;;3.08;2.65;;;;;;;25.80;57.79;99810.78;2133707;83;29647;-66
2021/08/02 08:24:05;;;;;;;4.15;2.55;;;;;;;26.26;57.24;99797.38;2147482;81;27800;-65
2021/08/02 08:27:08;;;;;;;3.60;2.40;;;;;;;26.76;56.54;99796.18;2172661;81;29413;-65
2021/08/02 08:30:11;;;;;;;2.40;2.20;;;;;;;27.09;56.00;99790.20;2172908;81;31103;-66
2021/08/02 08:33:13;;;;;;;2.62;2.10;;;;;;;27.73;55.42;99801.30;2134270;81;32847;-67
2021/08/02 08:36:17;;;;;;;2.47;2.20;;;;;;;28.01;53.96;99794.92;2133708;83;29641;-66
2021/08/02 08:39:19;;;;;;;9.18;2.12;;;;;;;28.05;53.66;99799.81;2170665;81;27674;-66
2021/08/02 08:42:21;;;;;;;2.92;2.30;;;;;;;28.12;52.62;99797.66;2174638;81;28615;-64
2021/08/02 08:45:23;;;;;;;2.98;2.77;;;;;;;28.12;52.48;99795.74;2149632;82;31773;-64
2021/08/02 08:48:27;;;;;;;3.52;2.33;;;;;;;28.23;51.87;99800.33;2149490;82;33928;-65
2021/08/02 08:51:30;;;;;;;13.13;2.80;;;;;;;28.39;51.80;99804.11;2134816;81;29666;-67
2021/08/02 08:54:33;;;;;;;3.65;2.00;;;;;;;28.56;51.36;99807.88;2153830;81;27670;-67
2021/08/02 08:57:35;;;;;;;3.17;1.92;;;;;;;28.44;50.96;99810.41;2172473;81;28877;-67
2021/08/02 09:00:37;;;;;;;3.30;2.00;;;;;;;28.38;49.97;99818.11;2168528;81;31862;-68
2021/08/02 09:03:53;;;;;;;2.95;2.05;;;;;;;28.23;49.79;99817.73;2133689;83;33004;-66
2021/08/02 09:06:59;;;;;;;4.17;1.77;;;;;;;28.11;49.32;99814.69;2087798;83;29679;-65
2021/08/02 09:10:04;;;;;;;2.70;2.00;;;;;;;28.16;49.63;99819.08;2097755;83;27707;-65
2021/08/02 09:13:07;;;;;;;4.42;2.20;;;;;;;28.06;48.35;99818.55;2095326;83;28662;-67
2021/08/02 09:16:28;;;;;;;3.87;3.20;;;;;;;27.72;48.69;99818.34;2117755;83;31011;-68
2021/08/02 09:19:53;;;;;;;4.80;2.50;;;;;;;27.51;48.63;99815.12;2118897;83;30476;-66
2021/08/02 09:22:53;;;;;;;3.87;2.85;;;;;;;27.23;48.56;99826.06;2112802;83;27759;-67
2021/08/02 09:26:01;;;;;;;2.67;2.40;;;;;;;26.97;48.74;99832.48;2084367;84;27668;-68
2021/08/02 09:29:05;;;;;;;3.92;2.52;;;;;;;26.73;48.36;99838.29;2084090;85;28652;-66
2021/08/02 09:32:10;;;;;;;3.10;2.80;;;;;;;26.37;48.92;99831.74;2084244;83;32061;-67
2021/08/02 09:35:12;;;;;;;2.50;2.30;;;;;;;26.14;48.50;99824.99;2156830;82;33027;-66
2021/08/02 09:38:16;;;;;;;4.65;3.20;;;;;;;25.92;48.97;99833.09;2116181;83;29576;-67
2021/08/02 09:41:20;;;;;;;3.87;2.83;;;;;;;25.85;49.48;99823.39;2139825;82;27787;-68
2021/08/02 09:44:46;;;;;;;5.50;3.22;;;;;;;26.00;50.29;99822.03;2159233;82;28640;-70
2021/08/02 09:47:50;;;;;;;3.77;3.30;;;;;;;26.29;50.11;99825.83;2126931;83;31177;-68
2021/08/02 09:50:52;;;;;;;4.17;3.45;;;;;;;26.37;49.11;99822.12;2116096;83;32992;-68
2021/08/02 09:53:55;;;;;;;4.53;3.45;;;;;;;26.28;49.30;99826.88;2090677;85;29634;-67
2021/08/02 09:56:57;;;;;;;4.50;2.98;;;;;;;26.36;49.70;99825.92;2092381;85;27703;-64
2021/08/02 09:59:59;;;;;;;6.85;3.22;;;;;;;26.48;49.65;99818.05;2092061;85;28637;-66
2021/08/02 10:03:02;;;;;;;3.02;2.83;;;;;;;26.48;48.98;99833.15;2092020;83;31055;-67
2021/08/02 10:06:05;;;;;;;3.83;3.52;;;;;;;26.50;49.11;99829.70;2092253;85;33595;-68
2021/08/02 10:09:09;;;;;;;3.52;3.12;;;;;;;26.46;48.79;99836.61;2107803;83;30514;-66
2021/08/02 10:12:11;;;;;;;4.15;3.15;;;;;;;26.36;48.83;99835.53;2106804;83;27723;-67
2021/08/02 10:15:20;;;;;;;13.40;6.20;;;;;;;26.28;48.22;99824.13;2120005;83;28692;-68
2021/08/02 10:18:22;;;;;;;36.40;10.28;;;;;;;26.15;48.73;99819.30;2092530;83;31029;-66
2021/08/02 10:21:24;;;;;;;13.40;5.80;;;;;;;26.17;48.98;99820.50;2087999;83;33012;-67
2021/08/02 10:24:28;;;;;;;18.52;6.33;;;;;;;26.06;48.34;99825.37;2051012;86;29703;-66
2021/08/02 10:27:32;;;;;;;9.35;4.70;;;;;;;25.73;48.00;99822.16;2121890;83;27682;-67
2021/08/02 10:30:34;;;;;;;3.45;3.15;;;;;;;25.54;48.92;99819.44;2085958;85;28680;-69
2021/08/02 10:33:39;;;;;;;3.90;3.60;;;;;;;25.54;49.01;99818.91;2111587;83;31013;-70
2021/08/02 10:36:41;;;;;;;3.62;3.33;;;;;;;25.54;49.24;99819.44;2092129;85;33066;-67
2021/08/02 10:39:43;;;;;;;4.50;4.10;;;;;;;25.43;48.50;99819.37;2092491;83;29610;-68
2021/08/02 10:42:50;;;;;;;4.25;3.87;;;;;;;25.25;48.51;99823.25;2077282;85;27829;-67
2021/08/02 10:45:52;;;;;;;5.05;4.45;;;;;;;25.18;49.01;99810.80;2083356;84;28714;-67
2021/08/02 10:49:07;;;;;;;4.67;4.28;;;;;;;25.28;49.26;99819.28;2114189;84;31172;-65
2021/08/02 10:52:10;;;;;;;4.87;3.75;;;;;;;25.43;48.92;99806.49;2116630;82;33895;-69
2021/08/02 10:55:18;;;;;;;3.80;3.50;;;;;;;25.55;49.18;99818.41;2150581;82;29635;-67
2021/08/02 10:58:30;;;;;;;3.47;3.10;;;;;;;25.68;48.53;99812.25;2150795;82;27684;-69
2021/08/02 11:01:37;;;;;;;4.90;3.45;;;;;;;25.76;48.79;99809.44;2150634;82;28821;-68
2021/08/02 11:04:41;;;;;;;4.10;3.00;;;;;;;25.75;48.34;99816.80;2146662;82;31058;-68
2021/08/02 11:07:44;;;;;;;4.35;3.27;;;;;;;25.66;47.81;99814.33;2148615;82;32993;-66
2021/08/02 11:10:49;;;;;;;5.25;3.12;;;;;;;25.55;48.38;99806.06;2112841;83;29852;-68
2021/08/02 11:13:53;;;;;;;3.35;3.05;;;;;;;25.56;48.02;99817.37;2112727;83;27734;-69
2021/08/02 11:16:55;;;;;;;3.95;3.02;;;;;;;25.59;48.12;99815.59;2078183;84;30871;-66
2021/08/02 11:20:01;;;;;;;5.20;3.10;;;;;;;25.66;48.43;99810.22;2114347;82;31092;-68
2021/08/02 11:23:03;;;;;;;3.92;2.77;;;;;;;25.83;48.36;99810.91;2114233;84;33003;-68
2021/08/02 11:26:09;;;;;;;2.62;2.42;;;;;;;25.98;47.86;99814.51;2114045;84;29624;-67
2021/08/02 11:29:32;;;;;;;2.50;2.30;;;;;;;26.03;47.76;99813.93;2138291;82;27733;-66
2021/08/02 11:32:45;;;;;;;4.42;2.30;;;;;;;26.24;48.00;99803.58;2109362;83;28694;-66
2021/08/02 11:36:03;;;;;;;2.80;2.60;;;;;;;26.48;47.07;99809.80;2100758;83;31078;-67
2021/08/02 11:39:29;;;;;;;2.67;2.42;;;;;;;26.53;46.97;99804.59;2129100;82;34009;-66
2021/08/02 11:42:47;;;;;;;2.25;2.00;;;;;;;26.65;46.57;99807.16;2101396;84;29844;-68
2021/08/02 11:45:58;;;;;;;2.22;2.10;;;;;;;26.66;46.81;99808.86;2100313;84;27845;-68
2021/08/02 11:49:00;;;;;;;5.87;2.67;;;;;;;26.80;46.85;99820.03;2091850;85;28697;-66
2021/08/02 11:52:04;;;;;;;3.60;3.27;;;;;;;26.78;45.93;99839.44;2094040;83;31177;-65
2021/08/02 11:55:10;;;;;;;5.65;3.58;;;;;;;26.29;45.93;99853.83;2091766;85;32998;-67
2021/08/02 11:58:12;;;;;;;6.03;3.72;;;;;;;25.75;46.37;99859.87;2074581;85;29789;-68
2021/08/02 12:01:15;;;;;;;7.25;4.20;;;;;;;25.32;47.73;99854.90;2092624;84;27731;-64
2021/08/02 12:04:19;;;;;;;7.75;4.53;;;;;;;24.89;49.06;99847.16;2106039;84;29289;-67
2021/08/02 12:07:52;;;;;;;4.87;4.45;;;;;;;24.46;50.32;99849.42;2113931;83;31177;-68
2021/08/02 12:11:01;;;;;;;5.55;4.87;;;;;;;24.23;51.34;99852.93;2084925;83;29733;-66
2021/08/02 12:14:05;;;;;;;7.42;5.17;;;;;;;24.17;51.99;99852.25;2015667;86;30317;-67
2021/08/02 12:17:10;;;;;;;5.40;4.90;;;;;;;24.09;52.60;99860.84;2069056;85;27927;-67
2021/08/02 12:20:15;;;;;;;5.70;5.20;;;;;;;24.05;53.25;99862.22;2070548;85;28802;-68
2021/08/02 12:23:27;;;;;;;2.40;2.25;;;;;;;24.00;53.72;99866.52;2012377;85;31038;-69
2021/08/02 12:26:30;;;;;;;2.30;2.20;;;;;;;23.79;52.51;99867.38;1999906;86;32960;-68
2021/08/02 12:29:33;;;;;;;2.67;2.37;;;;;;;23.63;52.52;99864.14;2009918;88;29651;-68
2021/08/02 12:32:43;;;;;;;2.62;2.42;;;;;;;23.61;52.50;99866.19;2009976;88;27812;-69
2021/08/02 12:35:47;;;;;;;3.98;3.55;;;;;;;23.63;53.11;99870.14;2030666;86;28666;-68
2021/08/02 12:38:57;;;;;;;9.38;3.60;;;;;;;23.66;53.66;99869.80;2052317;86;31716;-67
2021/08/02 12:42:04;;;;;;;4.78;4.33;;;;;;;23.77;53.74;99869.44;2052144;86;32987;-67
2021/08/02 12:45:09;;;;;;;4.30;4.00;;;;;;;23.82;53.96;99867.54;2052294;86;29636;-66
2021/08/02 12:48:12;;;;;;;4.28;3.95;;;;;;;23.78;53.96;99868.41;2052225;86;27786;-67
2021/08/02 12:51:15;;;;;;;3.17;2.92;;;;;;;23.60;52.92;99865.84;2107869;83;28863;-64
2021/08/02 12:54:20;;;;;;;;;;;;;;;23.40;52.99;99880.38;2130932;83;31065;-69
2021/08/02 12:57:26;;;;;;;3.83;2.72;;;;;;;23.29;53.00;99878.00;2134740;83;33001;-64
2021/08/02 13:00:28;;;;;;;3.67;3.12;;;;;;;23.20;53.54;99891.64;2135240;83;29645;-67
2021/08/02 13:03:30;;;;;;;5.53;2.52;;;;;;;23.06;53.64;99892.27;2132844;83;27697;-67
2021/08/02 13:06:32;;;;;;;2.72;2.52;;;;;;;23.12;54.00;99892.10;2135034;82;28689;-63
2021/08/02 13:09:35;;;;;;;3.10;2.90;;;;;;;23.14;54.06;99893.67;2135114;83;31751;-66
2021/08/02 13:12:37;;;;;;;3.10;2.90;;;;;;;23.14;53.70;99890.94;2125139;83;33813;-65
2021/08/02 13:15:39;;;;;;;3.55;2.75;;;;;;;23.23;53.70;99892.33;2104132;84;29689;-68
2021/08/02 13:18:45;;;;;;;4.67;3.50;;;;;;;23.31;53.55;99886.89;2104320;84;28251;-67
2021/08/02 13:21:46;;;;;;;4.10;3.47;;;;;;;23.32;53.41;99885.86;2104334;84;29599;-68
2021/08/02 13:28:12;;;;;;;3.42;3.12;;;;;;;23.49;53.59;99878.51;2103773;84;33816;-66
2021/08/02 13:31:15;;;;;;;3.27;3.00;;;;;;;23.49;53.08;99882.61;2103813;84;30688;-65
2021/08/02 13:34:17;;;;;;;2.72;2.52;;;;;;;23.45;52.96;99871.66;2123650;83;27598;-67
2021/08/02 13:37:23;;;;;;;3.27;3.08;;;;;;;23.44;52.97;99869.45;2135124;83;29345;-68
2021/08/02 13:40:25;;;;;;;3.40;3.10;;;;;;;23.41;52.65;99868.95;2134999;83;31111;-67
2021/08/02 13:43:30;;;;;;;3.37;3.08;;;;;;;23.30;52.69;99873.72;2133774;83;33607;-66
2021/08/02 13:46:33;;;;;;;2.98;2.77;;;;;;;23.21;52.63;99875.59;2140303;83;29186;-66
2021/08/02 13:49:37;;;;;;;3.08;2.87;;;;;;;23.04;52.79;99876.55;2141321;83;27891;-67
2021/08/02 13:52:40;;;;;;;3.35;3.15;;;;;;;22.90;52.89;99867.16;2120602;83;28674;-67
2021/08/02 13:55:43;;;;;;;3.85;2.77;;;;;;;22.80;53.03;99867.30;2104725;84;31083;-67
2021/08/02 13:58:46;;;;;;;2.62;2.42;;;;;;;22.73;53.01;99866.25;2105018;83;33777;-67
2021/08/02 14:01:48;;;;;;;3.65;2.40;;;;;;;22.69;52.72;99866.22;2109592;83;30456;-67
2021/08/02 14:04:51;;;;;;;2.75;2.45;;;;;;;22.68;52.83;99872.70;2141190;83;27589;-65
2021/08/02 14:07:53;;;;;;;2.30;2.10;;;;;;;22.72;52.17;99866.77;2141198;83;29486;-66
2021/08/02 14:11:03;;;;;;;3.52;1.82;;;;;;;22.72;52.19;99872.23;2129772;83;31717;-64
2021/08/02 14:14:05;;;;;;;3.05;1.87;;;;;;;22.69;51.45;99871.69;2104901;84;33855;-64
2021/08/02 14:17:09;;;;;;;2.75;2.40;;;;;;;22.62;51.46;99874.23;2105057;84;29132;-65
2021/08/02 14:20:12;;;;;;;3.22;2.12;;;;;;;22.56;51.28;99862.09;2075925;83;36864;-65
2021/08/02 14:23:15;;;;;;;5.10;2.67;;;;;;;22.43;50.38;99872.63;2100219;83;28711;-67
2021/08/02 14:26:18;;;;;;;3.15;2.65;;;;;;;22.33;50.87;99869.16;2111134;83;31204;-66
2021/08/02 14:29:20;;;;;;;2.80;2.25;;;;;;;22.25;50.61;99875.42;2141317;83;32972;-66